Stacyville, Maine
Current Conditions -  °F | °C
As of 1:38 PM on Thursday 23 Oct 2014 (Local Time) from KMLT Reporting Station
Light Rain Light Rain  
Wind Chill: 41°   Ceiling: 900
Heat Index: 47°   Visibility: 2mi
Dew Point: 45°   Wind: 13mph
Humidity: 93%   Direction: 50°NE
Pressure: 29.98"   Gusts: 21mph
Location:  45.86°N, 68.51°W
Report Text: KMLT 231738Z AUTO 05011G18KT 2SM -RA BR BKN009 OVC016 08/07 A2998 RMK AO2 CIG 006V013 P0002 T00830072
Loading
Personal Weather Stations






























Interactive Weather Map
Tropical Storm Tracking
New forecast layout! Learn more

10-Day Weather Forecast

Advertisements
Track Severe Weather on mobile